CFG7KH EDDH-LGRP
Flight info
| Callsign | CFG7KH |
|---|---|
| Flight time | 3h 11m |
| Altitude | 35000 |
| Route | AMLUH2G AMLUH M852 DENIX DCT ZUCKA DCT ARMUT DCT LULAR DCT DEXIT DCT DER DCT MEDUX UM867 KOGAT DCT ERANA DCT TSL UN130 MES UN139 LURUS UL995 CODIC |
| Aircraft | A321/M-SDE3FGIJ1LORVWXYZ/LB1 |
Departure
| Time | 2026-04-26 07:02 |
|---|---|
| Airport | Hamburg Helmut Schmidt Airport (EDDH) |
Arrival
| Time | 2026-04-26 10:14 |
|---|---|
| Airport | Rhodes International Airport "Diagoras" (LGRP) |
| Time | Latitude | Longitude | Altitude | Speed | Heading |
|---|---|---|---|---|---|
| 2026-04-26 06:03 | 53.63373 | 10.00338 | 49 ft | 0 kts | 86° |
| 2026-04-26 06:50 | 53.63371 | 10.00305 | 45 ft | 4 kts | 86° |
| 2026-04-26 06:50 | 53.63370 | 10.00259 | 47 ft | 4 kts | 88° |
| 2026-04-26 06:50 | 53.63369 | 10.00214 | 48 ft | 4 kts | 95° |
| 2026-04-26 06:50 | 53.63375 | 10.00173 | 44 ft | 4 kts | 129° |
| 2026-04-26 06:51 | 53.63384 | 10.00159 | 47 ft | 0 kts | 176° |
| 2026-04-26 06:56 | 53.63379 | 10.00160 | 48 ft | 1 kts | 176° |
| 2026-04-26 06:56 | 53.63357 | 10.00163 | 48 ft | 6 kts | 176° |
| 2026-04-26 06:56 | 53.63315 | 10.00168 | 48 ft | 6 kts | 176° |
| 2026-04-26 06:56 | 53.63264 | 10.00174 | 48 ft | 9 kts | 176° |
| 2026-04-26 06:57 | 53.63193 | 10.00182 | 48 ft | 10 kts | 176° |
| 2026-04-26 06:57 | 53.63128 | 10.00190 | 48 ft | 9 kts | 176° |
| 2026-04-26 06:57 | 53.63073 | 10.00187 | 48 ft | 7 kts | 196° |
| 2026-04-26 06:57 | 53.63034 | 10.00148 | 48 ft | 6 kts | 213° |
| 2026-04-26 06:58 | 53.63003 | 10.00114 | 48 ft | 5 kts | 213° |
| 2026-04-26 06:58 | 53.62980 | 10.00088 | 48 ft | 5 kts | 213° |
| 2026-04-26 06:58 | 53.62930 | 10.00025 | 48 ft | 11 kts | 231° |
| 2026-04-26 06:58 | 53.62894 | 9.99912 | 47 ft | 11 kts | 242° |
| 2026-04-26 06:59 | 53.62858 | 9.99789 | 45 ft | 12 kts | 257° |
| 2026-04-26 06:59 | 53.62890 | 9.99721 | 45 ft | 0 kts | 330° |
| 2026-04-26 06:59 | 53.62892 | 9.99719 | 45 ft | 1 kts | 332° |
| 2026-04-26 06:59 | 53.62894 | 9.99718 | 45 ft | 0 kts | 332° |
| 2026-04-26 07:00 | 53.62899 | 9.99716 | 45 ft | 2 kts | 342° |
| 2026-04-26 07:00 | 53.62903 | 9.99713 | 45 ft | 0 kts | 335° |
| 2026-04-26 07:00 | 53.62908 | 9.99708 | 45 ft | 0 kts | 333° |
| 2026-04-26 07:01 | 53.62919 | 9.99698 | 45 ft | 7 kts | 331° |
| 2026-04-26 07:01 | 53.63099 | 9.99538 | 46 ft | 63 kts | 333° |
| 2026-04-26 07:02 | 53.63455 | 9.99235 | 46 ft | 104 kts | 333° |
| 2026-04-26 07:02 | 53.64255 | 9.98537 | 49 ft | 152 kts | 333° |
| 2026-04-26 07:02 | 53.65287 | 9.97683 | 272 ft | 171 kts | 333° |
| 2026-04-26 07:02 | 53.66355 | 9.96727 | 921 ft | 173 kts | 333° |
| 2026-04-26 07:03 | 53.67386 | 9.95808 | 1701 ft | 167 kts | 335° |
| 2026-04-26 07:03 | 53.68483 | 9.94886 | 1987 ft | 186 kts | 339° |
| 2026-04-26 07:03 | 53.69772 | 9.94351 | 2306 ft | 198 kts | 360° |
| 2026-04-26 07:03 | 53.71182 | 9.94599 | 2590 ft | 210 kts | 9° |
| 2026-04-26 07:04 | 53.72578 | 9.95282 | 3328 ft | 209 kts | 28° |
| 2026-04-26 07:04 | 53.73652 | 9.96921 | 4023 ft | 213 kts | 57° |
| 2026-04-26 07:04 | 53.74077 | 9.99331 | 4658 ft | 219 kts | 83° |
| 2026-04-26 07:04 | 53.74180 | 10.01914 | 5262 ft | 223 kts | 89° |
| 2026-04-26 07:05 | 53.73871 | 10.04520 | 5776 ft | 234 kts | 109° |
| 2026-04-26 07:05 | 53.73081 | 10.07085 | 6013 ft | 256 kts | 117° |
| 2026-04-26 07:05 | 53.72187 | 10.09745 | 6515 ft | 263 kts | 117° |
| 2026-04-26 07:05 | 53.71264 | 10.12479 | 6947 ft | 277 kts | 116° |
| 2026-04-26 07:06 | 53.70295 | 10.15357 | 7493 ft | 286 kts | 116° |
| 2026-04-26 07:06 | 53.69189 | 10.18194 | 8113 ft | 295 kts | 129° |
| 2026-04-26 07:06 | 53.67616 | 10.20458 | 8740 ft | 302 kts | 148° |
| 2026-04-26 07:06 | 53.65670 | 10.21863 | 9362 ft | 307 kts | 166° |
| 2026-04-26 07:07 | 53.63590 | 10.22802 | 9998 ft | 312 kts | 166° |
| 2026-04-26 07:07 | 53.61470 | 10.23760 | 10540 ft | 319 kts | 166° |
| 2026-04-26 07:07 | 53.59247 | 10.24765 | 10681 ft | 342 kts | 166° |
| 2026-04-26 07:07 | 53.56881 | 10.25843 | 10809 ft | 363 kts | 166° |
| 2026-04-26 07:08 | 53.54380 | 10.26990 | 10936 ft | 382 kts | 166° |
| 2026-04-26 07:08 | 53.51775 | 10.28188 | 11316 ft | 392 kts | 166° |
| 2026-04-26 07:08 | 53.49136 | 10.29400 | 11875 ft | 396 kts | 166° |
| 2026-04-26 07:08 | 53.46455 | 10.30632 | 12444 ft | 401 kts | 166° |
| 2026-04-26 07:09 | 53.43752 | 10.31871 | 13014 ft | 405 kts | 166° |
| 2026-04-26 07:09 | 53.41016 | 10.33116 | 13568 ft | 410 kts | 166° |
| 2026-04-26 07:09 | 53.38250 | 10.34365 | 14119 ft | 414 kts | 166° |
| 2026-04-26 07:09 | 53.35453 | 10.35622 | 14609 ft | 418 kts | 166° |
| 2026-04-26 07:10 | 53.26939 | 10.39434 | 16099 ft | 427 kts | 166° |
| 2026-04-26 07:11 | 53.21156 | 10.42011 | 17074 ft | 433 kts | 166° |
| 2026-04-26 07:11 | 53.18229 | 10.43307 | 17552 ft | 436 kts | 167° |
| 2026-04-26 07:11 | 53.15291 | 10.44609 | 18008 ft | 439 kts | 167° |
| 2026-04-26 07:11 | 53.12322 | 10.45907 | 18455 ft | 442 kts | 168° |
| 2026-04-26 07:12 | 53.09351 | 10.47030 | 18875 ft | 444 kts | 170° |
| 2026-04-26 07:12 | 53.06269 | 10.48025 | 19294 ft | 446 kts | 172° |
| 2026-04-26 07:12 | 53.03245 | 10.48900 | 19698 ft | 448 kts | 173° |
| 2026-04-26 07:12 | 53.00166 | 10.49756 | 20114 ft | 450 kts | 173° |
| 2026-04-26 07:13 | 52.97070 | 10.50628 | 20526 ft | 452 kts | 173° |
| 2026-04-26 07:13 | 52.93956 | 10.51537 | 20941 ft | 455 kts | 172° |
| 2026-04-26 07:13 | 52.90837 | 10.52484 | 21339 ft | 457 kts | 172° |
| 2026-04-26 07:13 | 52.87705 | 10.53461 | 21751 ft | 459 kts | 172° |
| 2026-04-26 07:14 | 52.84558 | 10.54453 | 22162 ft | 461 kts | 172° |
| 2026-04-26 07:14 | 52.81408 | 10.55444 | 22564 ft | 463 kts | 172° |
| 2026-04-26 07:14 | 52.78230 | 10.56438 | 22965 ft | 466 kts | 172° |
| 2026-04-26 07:14 | 52.75038 | 10.57430 | 23359 ft | 468 kts | 172° |
| 2026-04-26 07:15 | 52.71828 | 10.58419 | 23748 ft | 469 kts | 172° |
| 2026-04-26 07:15 | 52.68616 | 10.59400 | 24093 ft | 471 kts | 172° |
| 2026-04-26 07:15 | 52.65384 | 10.60383 | 24432 ft | 473 kts | 172° |
| 2026-04-26 07:15 | 52.62147 | 10.61369 | 24763 ft | 474 kts | 172° |
| 2026-04-26 07:16 | 52.58894 | 10.62359 | 25105 ft | 475 kts | 172° |
| 2026-04-26 07:16 | 52.55644 | 10.63347 | 25445 ft | 476 kts | 172° |
| 2026-04-26 07:16 | 52.52383 | 10.64341 | 25769 ft | 477 kts | 172° |
| 2026-04-26 07:16 | 52.49112 | 10.65336 | 26097 ft | 479 kts | 172° |
| 2026-04-26 07:17 | 52.45839 | 10.66327 | 26415 ft | 480 kts | 172° |
| 2026-04-26 07:17 | 52.42539 | 10.67321 | 26715 ft | 481 kts | 172° |
| 2026-04-26 07:17 | 52.39243 | 10.68311 | 27031 ft | 482 kts | 172° |
| 2026-04-26 07:17 | 52.35937 | 10.69304 | 27338 ft | 484 kts | 172° |
| 2026-04-26 07:18 | 52.32626 | 10.70302 | 27655 ft | 485 kts | 172° |
| 2026-04-26 07:18 | 52.29300 | 10.71303 | 27951 ft | 486 kts | 172° |
| 2026-04-26 07:18 | 52.25968 | 10.72304 | 28248 ft | 487 kts | 172° |
| 2026-04-26 07:18 | 52.22635 | 10.73307 | 28553 ft | 488 kts | 172° |
| 2026-04-26 07:19 | 52.19296 | 10.74312 | 28963 ft | 486 kts | 172° |
| 2026-04-26 07:19 | 52.15977 | 10.75309 | 29361 ft | 484 kts | 172° |
| 2026-04-26 07:19 | 52.12669 | 10.76299 | 29749 ft | 483 kts | 172° |
| 2026-04-26 07:19 | 52.09370 | 10.77283 | 30131 ft | 481 kts | 172° |
| 2026-04-26 07:20 | 52.06086 | 10.78260 | 30484 ft | 480 kts | 172° |
| 2026-04-26 07:20 | 52.02805 | 10.79232 | 30800 ft | 478 kts | 172° |
| 2026-04-26 07:20 | 51.99526 | 10.80202 | 31111 ft | 477 kts | 172° |
| 2026-04-26 07:20 | 51.96263 | 10.81167 | 31429 ft | 476 kts | 172° |
| 2026-04-26 07:21 | 51.93054 | 10.82115 | 31738 ft | 475 kts | 172° |
| 2026-04-26 07:21 | 51.89767 | 10.83083 | 32061 ft | 474 kts | 172° |
| 2026-04-26 07:21 | 51.86569 | 10.84025 | 32366 ft | 473 kts | 172° |
| 2026-04-26 07:21 | 51.83332 | 10.84978 | 32682 ft | 472 kts | 172° |
| 2026-04-26 07:22 | 51.80111 | 10.85932 | 32994 ft | 471 kts | 172° |
| 2026-04-26 07:22 | 51.76887 | 10.86885 | 33330 ft | 469 kts | 172° |
| 2026-04-26 07:22 | 51.73685 | 10.87829 | 33653 ft | 468 kts | 172° |
| 2026-04-26 07:22 | 51.70477 | 10.88769 | 33969 ft | 467 kts | 172° |
| 2026-04-26 07:23 | 51.67323 | 10.90020 | 34279 ft | 468 kts | 163° |
| 2026-04-26 07:23 | 51.64314 | 10.91989 | 34539 ft | 469 kts | 156° |
| 2026-04-26 07:23 | 51.61375 | 10.94254 | 34779 ft | 468 kts | 156° |
| 2026-04-26 07:23 | 51.58431 | 10.96509 | 35003 ft | 467 kts | 156° |
| 2026-04-26 07:24 | 51.55494 | 10.98744 | 35224 ft | 467 kts | 156° |
| 2026-04-26 07:24 | 51.49636 | 11.03181 | 35301 ft | 465 kts | 156° |
| 2026-04-26 07:25 | 51.43784 | 11.07621 | 35298 ft | 464 kts | 156° |
| 2026-04-26 07:25 | 51.37947 | 11.12041 | 35300 ft | 464 kts | 156° |
| 2026-04-26 07:26 | 51.32102 | 11.16437 | 35300 ft | 464 kts | 156° |
| 2026-04-26 07:26 | 51.26259 | 11.20817 | 35298 ft | 464 kts | 156° |
| 2026-04-26 07:27 | 51.20425 | 11.25195 | 35296 ft | 464 kts | 156° |
| 2026-04-26 07:27 | 51.14586 | 11.29572 | 35296 ft | 463 kts | 156° |
| 2026-04-26 07:28 | 51.08751 | 11.33931 | 35294 ft | 464 kts | 156° |
| 2026-04-26 07:28 | 51.02901 | 11.38273 | 35306 ft | 463 kts | 157° |
| 2026-04-26 07:29 | 50.97066 | 11.42597 | 35304 ft | 463 kts | 157° |
| 2026-04-26 07:29 | 50.91222 | 11.46912 | 35305 ft | 463 kts | 157° |
| 2026-04-26 07:30 | 50.85379 | 11.51215 | 35300 ft | 463 kts | 157° |
| 2026-04-26 07:30 | 50.79572 | 11.55497 | 35298 ft | 463 kts | 157° |
| 2026-04-26 07:31 | 50.73731 | 11.59793 | 35297 ft | 463 kts | 157° |
| 2026-04-26 07:31 | 50.67878 | 11.64068 | 35303 ft | 463 kts | 157° |
| 2026-04-26 07:32 | 50.62029 | 11.68325 | 35299 ft | 463 kts | 157° |
| 2026-04-26 07:32 | 50.56179 | 11.72577 | 35294 ft | 463 kts | 157° |
| 2026-04-26 07:33 | 50.50326 | 11.76817 | 35289 ft | 463 kts | 157° |
| 2026-04-26 07:33 | 50.44471 | 11.81049 | 35285 ft | 463 kts | 157° |
| 2026-04-26 07:34 | 50.38609 | 11.85277 | 35284 ft | 464 kts | 157° |
| 2026-04-26 07:34 | 50.32746 | 11.89492 | 35282 ft | 464 kts | 157° |
| 2026-04-26 07:35 | 50.26885 | 11.93698 | 35281 ft | 464 kts | 157° |
| 2026-04-26 07:35 | 50.21021 | 11.97895 | 35281 ft | 464 kts | 157° |
| 2026-04-26 07:36 | 50.15157 | 12.02082 | 35277 ft | 463 kts | 157° |
| 2026-04-26 07:36 | 50.09287 | 12.06250 | 35278 ft | 463 kts | 157° |
| 2026-04-26 07:37 | 50.03428 | 12.10399 | 35276 ft | 463 kts | 157° |
| 2026-04-26 07:37 | 49.97599 | 12.14521 | 35273 ft | 463 kts | 157° |
| 2026-04-26 07:38 | 49.91738 | 12.18661 | 35269 ft | 462 kts | 157° |
| 2026-04-26 07:38 | 49.85885 | 12.22779 | 35263 ft | 462 kts | 158° |
| 2026-04-26 07:39 | 49.80022 | 12.26893 | 35264 ft | 462 kts | 157° |
| 2026-04-26 07:39 | 49.74177 | 12.31008 | 35263 ft | 462 kts | 155° |
| 2026-04-26 07:40 | 49.68838 | 12.36531 | 35260 ft | 464 kts | 142° |
| 2026-04-26 07:40 | 49.63791 | 12.42745 | 35257 ft | 464 kts | 143° |
| 2026-04-26 07:41 | 49.58728 | 12.48925 | 35256 ft | 464 kts | 143° |
| 2026-04-26 07:41 | 49.53675 | 12.55095 | 35258 ft | 464 kts | 143° |
| 2026-04-26 07:42 | 49.48625 | 12.61263 | 35252 ft | 463 kts | 143° |
| 2026-04-26 07:42 | 49.43567 | 12.67418 | 35246 ft | 463 kts | 143° |
| 2026-04-26 07:43 | 49.38510 | 12.73541 | 35239 ft | 463 kts | 143° |
| 2026-04-26 07:43 | 49.33808 | 12.80314 | 35234 ft | 464 kts | 134° |
| 2026-04-26 07:44 | 49.29348 | 12.87469 | 35233 ft | 465 kts | 135° |
| 2026-04-26 07:44 | 49.24873 | 12.94622 | 35224 ft | 466 kts | 135° |
| 2026-04-26 07:45 | 49.20376 | 13.01774 | 35225 ft | 466 kts | 135° |
| 2026-04-26 07:45 | 49.15875 | 13.08914 | 35227 ft | 466 kts | 135° |
| 2026-04-26 07:46 | 49.11376 | 13.16042 | 35225 ft | 467 kts | 135° |
| 2026-04-26 07:46 | 49.06871 | 13.23168 | 35223 ft | 467 kts | 135° |
| 2026-04-26 07:47 | 49.02348 | 13.30288 | 35223 ft | 467 kts | 135° |
| 2026-04-26 07:47 | 48.97818 | 13.37386 | 35222 ft | 467 kts | 135° |
| 2026-04-26 07:48 | 48.93318 | 13.44421 | 35220 ft | 467 kts | 135° |
| 2026-04-26 07:48 | 48.88786 | 13.51493 | 35215 ft | 467 kts | 135° |
| 2026-04-26 07:49 | 48.84255 | 13.58552 | 35218 ft | 467 kts | 135° |
| 2026-04-26 07:49 | 48.79710 | 13.65599 | 35220 ft | 467 kts | 135° |
| 2026-04-26 07:50 | 48.72539 | 13.75540 | 35211 ft | 466 kts | 142° |
| 2026-04-26 07:50 | 48.67513 | 13.81724 | 35215 ft | 466 kts | 142° |
| 2026-04-26 07:51 | 48.63338 | 13.86860 | 35214 ft | 466 kts | 142° |
| 2026-04-26 07:51 | 48.58314 | 13.93031 | 35211 ft | 466 kts | 142° |
| 2026-04-26 07:52 | 48.53286 | 13.99196 | 35215 ft | 466 kts | 142° |
| 2026-04-26 07:52 | 48.48216 | 14.05386 | 35219 ft | 466 kts | 142° |
| 2026-04-26 07:53 | 48.43206 | 14.11477 | 35226 ft | 466 kts | 142° |
| 2026-04-26 07:53 | 48.38157 | 14.17604 | 35235 ft | 466 kts | 142° |
| 2026-04-26 07:54 | 48.33101 | 14.23733 | 35238 ft | 466 kts | 142° |
| 2026-04-26 07:54 | 48.28047 | 14.29838 | 35241 ft | 467 kts | 142° |
| 2026-04-26 07:55 | 48.22977 | 14.35939 | 35235 ft | 467 kts | 142° |
| 2026-04-26 07:55 | 48.17909 | 14.42034 | 35231 ft | 467 kts | 142° |
| 2026-04-26 07:56 | 48.12832 | 14.48123 | 35222 ft | 467 kts | 142° |
| 2026-04-26 07:56 | 48.07757 | 14.54190 | 35215 ft | 467 kts | 142° |
| 2026-04-26 07:57 | 48.02669 | 14.60249 | 35202 ft | 468 kts | 142° |
| 2026-04-26 07:57 | 47.97574 | 14.66307 | 35198 ft | 468 kts | 142° |
| 2026-04-26 07:58 | 47.92486 | 14.72344 | 35192 ft | 468 kts | 142° |
| 2026-04-26 07:58 | 47.87382 | 14.78377 | 35185 ft | 468 kts | 142° |
| 2026-04-26 07:59 | 47.82281 | 14.84389 | 35174 ft | 468 kts | 142° |
| 2026-04-26 07:59 | 47.77165 | 14.90412 | 35172 ft | 469 kts | 142° |
| 2026-04-26 08:00 | 47.72045 | 14.96426 | 35154 ft | 470 kts | 142° |
| 2026-04-26 08:00 | 47.66910 | 15.02442 | 35143 ft | 471 kts | 142° |
| 2026-04-26 08:01 | 47.61749 | 15.08472 | 35133 ft | 473 kts | 142° |
| 2026-04-26 08:01 | 47.56559 | 15.14507 | 35128 ft | 475 kts | 142° |
| 2026-04-26 08:02 | 47.51362 | 15.20542 | 35129 ft | 475 kts | 142° |
| 2026-04-26 08:02 | 47.46172 | 15.26569 | 35136 ft | 474 kts | 142° |
| 2026-04-26 08:03 | 47.40984 | 15.32574 | 35143 ft | 473 kts | 142° |
| 2026-04-26 08:03 | 47.35810 | 15.38535 | 35156 ft | 471 kts | 142° |
| 2026-04-26 08:04 | 47.30645 | 15.44461 | 35152 ft | 469 kts | 143° |
| 2026-04-26 08:04 | 47.25501 | 15.50360 | 35139 ft | 468 kts | 143° |
| 2026-04-26 08:05 | 47.20409 | 15.56197 | 35152 ft | 466 kts | 143° |
| 2026-04-26 08:05 | 47.15294 | 15.62032 | 35148 ft | 465 kts | 143° |
| 2026-04-26 08:06 | 47.10177 | 15.67846 | 35153 ft | 464 kts | 143° |
| 2026-04-26 08:06 | 47.05086 | 15.73627 | 35146 ft | 463 kts | 143° |
| 2026-04-26 08:07 | 46.99994 | 15.79399 | 35136 ft | 462 kts | 143° |
| 2026-04-26 08:07 | 46.94907 | 15.85143 | 35129 ft | 462 kts | 143° |
| 2026-04-26 08:08 | 46.89816 | 15.90871 | 35122 ft | 461 kts | 143° |
| 2026-04-26 08:08 | 46.84734 | 15.96595 | 35117 ft | 461 kts | 143° |
| 2026-04-26 08:09 | 46.79647 | 16.02314 | 35116 ft | 462 kts | 143° |
| 2026-04-26 08:09 | 46.74539 | 16.08016 | 35109 ft | 463 kts | 143° |
| 2026-04-26 08:10 | 46.69423 | 16.13716 | 35113 ft | 463 kts | 143° |
| 2026-04-26 08:10 | 46.64311 | 16.19411 | 35113 ft | 463 kts | 143° |
| 2026-04-26 08:11 | 46.59188 | 16.25109 | 35112 ft | 463 kts | 143° |
| 2026-04-26 08:11 | 46.54068 | 16.30771 | 35116 ft | 463 kts | 143° |
| 2026-04-26 08:12 | 46.48964 | 16.36404 | 35120 ft | 463 kts | 143° |
| 2026-04-26 08:12 | 46.43802 | 16.42104 | 35124 ft | 464 kts | 143° |
| 2026-04-26 08:13 | 46.38701 | 16.47723 | 35127 ft | 464 kts | 143° |
| 2026-04-26 08:13 | 46.33564 | 16.53360 | 35130 ft | 464 kts | 143° |
| 2026-04-26 08:14 | 46.28417 | 16.58984 | 35128 ft | 464 kts | 143° |
| 2026-04-26 08:14 | 46.23268 | 16.64594 | 35125 ft | 464 kts | 143° |
| 2026-04-26 08:15 | 46.18120 | 16.70208 | 35118 ft | 464 kts | 143° |
| 2026-04-26 08:15 | 46.12973 | 16.75815 | 35120 ft | 464 kts | 143° |
| 2026-04-26 08:16 | 46.07812 | 16.81412 | 35121 ft | 464 kts | 143° |
| 2026-04-26 08:16 | 46.02640 | 16.87000 | 35118 ft | 465 kts | 143° |
| 2026-04-26 08:17 | 45.97472 | 16.92568 | 35117 ft | 465 kts | 143° |
| 2026-04-26 08:17 | 45.92296 | 16.98152 | 35114 ft | 465 kts | 143° |
| 2026-04-26 08:18 | 45.87112 | 17.03725 | 35114 ft | 465 kts | 143° |
| 2026-04-26 08:18 | 45.81924 | 17.09278 | 35106 ft | 466 kts | 143° |
| 2026-04-26 08:19 | 45.76721 | 17.14835 | 35108 ft | 466 kts | 143° |
| 2026-04-26 08:19 | 45.71516 | 17.20382 | 35112 ft | 467 kts | 143° |
| 2026-04-26 08:20 | 45.66303 | 17.25920 | 35120 ft | 467 kts | 143° |
| 2026-04-26 08:20 | 45.61115 | 17.31416 | 35118 ft | 468 kts | 144° |
| 2026-04-26 08:21 | 45.55883 | 17.36957 | 35114 ft | 468 kts | 144° |
| 2026-04-26 08:21 | 45.50655 | 17.42486 | 35116 ft | 468 kts | 144° |
| 2026-04-26 08:22 | 45.45420 | 17.48004 | 35111 ft | 468 kts | 144° |
| 2026-04-26 08:22 | 45.40179 | 17.53507 | 35107 ft | 468 kts | 144° |
| 2026-04-26 08:23 | 45.34933 | 17.59005 | 35108 ft | 468 kts | 144° |
| 2026-04-26 08:23 | 45.29688 | 17.64487 | 35111 ft | 468 kts | 144° |
| 2026-04-26 08:24 | 45.24438 | 17.69974 | 35109 ft | 468 kts | 144° |
| 2026-04-26 08:24 | 45.19183 | 17.75452 | 35108 ft | 469 kts | 144° |
| 2026-04-26 08:25 | 45.13928 | 17.80914 | 35104 ft | 469 kts | 144° |
| 2026-04-26 08:25 | 45.08659 | 17.86364 | 35105 ft | 469 kts | 144° |
| 2026-04-26 08:26 | 45.03418 | 17.91773 | 35103 ft | 469 kts | 144° |
| 2026-04-26 08:26 | 44.98113 | 17.97240 | 35101 ft | 469 kts | 145° |
| 2026-04-26 08:27 | 44.92764 | 18.02514 | 35104 ft | 469 kts | 147° |
| 2026-04-26 08:27 | 44.87375 | 18.07583 | 35106 ft | 469 kts | 147° |
| 2026-04-26 08:28 | 44.81944 | 18.12698 | 35100 ft | 469 kts | 147° |
| 2026-04-26 08:28 | 44.76530 | 18.17860 | 35107 ft | 470 kts | 147° |
| 2026-04-26 08:29 | 44.71124 | 18.23019 | 35112 ft | 470 kts | 147° |
| 2026-04-26 08:29 | 44.65708 | 18.28168 | 35109 ft | 470 kts | 147° |
| 2026-04-26 08:30 | 44.60276 | 18.33304 | 35123 ft | 470 kts | 147° |
| 2026-04-26 08:30 | 44.54846 | 18.38421 | 35125 ft | 470 kts | 147° |
| 2026-04-26 08:31 | 44.49413 | 18.43539 | 35128 ft | 471 kts | 147° |
| 2026-04-26 08:31 | 44.43978 | 18.48661 | 35124 ft | 471 kts | 147° |
| 2026-04-26 08:32 | 44.38544 | 18.53768 | 35126 ft | 471 kts | 147° |
| 2026-04-26 08:32 | 44.33103 | 18.58861 | 35128 ft | 471 kts | 147° |
| 2026-04-26 08:33 | 44.27659 | 18.63935 | 35126 ft | 471 kts | 147° |
| 2026-04-26 08:33 | 44.22209 | 18.69010 | 35125 ft | 471 kts | 147° |
| 2026-04-26 08:34 | 44.16763 | 18.74072 | 35123 ft | 471 kts | 148° |
| 2026-04-26 08:34 | 44.11308 | 18.79136 | 35122 ft | 471 kts | 148° |
| 2026-04-26 08:35 | 44.05859 | 18.84191 | 35121 ft | 471 kts | 148° |
| 2026-04-26 08:35 | 44.00434 | 18.89206 | 35124 ft | 472 kts | 148° |
| 2026-04-26 08:36 | 43.94929 | 18.94266 | 35123 ft | 471 kts | 148° |
| 2026-04-26 08:36 | 43.89458 | 18.99283 | 35118 ft | 471 kts | 148° |
| 2026-04-26 08:37 | 43.84026 | 19.04260 | 35117 ft | 471 kts | 148° |
| 2026-04-26 08:37 | 43.78557 | 19.09270 | 35117 ft | 471 kts | 148° |
| 2026-04-26 08:38 | 43.73080 | 19.14273 | 35113 ft | 471 kts | 148° |
| 2026-04-26 08:38 | 43.67606 | 19.19258 | 35113 ft | 471 kts | 148° |
| 2026-04-26 08:39 | 43.62124 | 19.24230 | 35112 ft | 471 kts | 148° |
| 2026-04-26 08:39 | 43.56641 | 19.29200 | 35103 ft | 472 kts | 148° |
| 2026-04-26 08:40 | 43.52084 | 19.33327 | 35106 ft | 472 kts | 148° |
| 2026-04-26 08:40 | 43.46592 | 19.38289 | 35100 ft | 472 kts | 149° |
| 2026-04-26 08:41 | 43.41091 | 19.43248 | 35108 ft | 473 kts | 149° |
| 2026-04-26 08:41 | 43.35585 | 19.48203 | 35104 ft | 473 kts | 149° |
| 2026-04-26 08:42 | 43.30084 | 19.53150 | 35102 ft | 473 kts | 149° |
| 2026-04-26 08:42 | 43.24563 | 19.58092 | 35099 ft | 473 kts | 149° |
| 2026-04-26 08:43 | 43.19044 | 19.63012 | 35100 ft | 474 kts | 149° |
| 2026-04-26 08:43 | 43.13513 | 19.67934 | 35092 ft | 474 kts | 149° |
| 2026-04-26 08:44 | 43.07981 | 19.72853 | 35091 ft | 474 kts | 149° |
| 2026-04-26 08:44 | 43.02456 | 19.77748 | 35091 ft | 474 kts | 149° |
| 2026-04-26 08:45 | 42.96924 | 19.82652 | 35095 ft | 474 kts | 149° |
| 2026-04-26 08:45 | 42.91378 | 19.87552 | 35090 ft | 474 kts | 150° |
| 2026-04-26 08:46 | 42.85834 | 19.92434 | 35088 ft | 474 kts | 150° |
| 2026-04-26 08:46 | 42.80295 | 19.97317 | 35099 ft | 474 kts | 150° |
| 2026-04-26 08:47 | 42.74899 | 20.02501 | 35091 ft | 477 kts | 140° |
| 2026-04-26 08:47 | 42.70488 | 20.09268 | 35088 ft | 479 kts | 130° |
| 2026-04-26 08:48 | 42.66280 | 20.16228 | 35091 ft | 480 kts | 131° |
| 2026-04-26 08:48 | 42.62019 | 20.23210 | 35099 ft | 480 kts | 131° |
| 2026-04-26 08:49 | 42.57737 | 20.30238 | 35088 ft | 480 kts | 131° |
| 2026-04-26 08:49 | 42.53507 | 20.37180 | 35103 ft | 481 kts | 131° |
| 2026-04-26 08:50 | 42.49238 | 20.44149 | 35102 ft | 481 kts | 131° |
| 2026-04-26 08:50 | 42.44965 | 20.51126 | 35103 ft | 481 kts | 131° |
| 2026-04-26 08:51 | 42.38551 | 20.61568 | 35105 ft | 481 kts | 131° |
| 2026-04-26 08:52 | 42.34269 | 20.68504 | 35105 ft | 481 kts | 131° |
| 2026-04-26 08:52 | 42.29985 | 20.75434 | 35100 ft | 481 kts | 131° |
| 2026-04-26 08:53 | 42.25695 | 20.82358 | 35102 ft | 481 kts | 131° |
| 2026-04-26 08:53 | 42.21396 | 20.89272 | 35097 ft | 480 kts | 131° |
| 2026-04-26 08:54 | 42.17105 | 20.96169 | 35088 ft | 480 kts | 131° |
| 2026-04-26 08:54 | 42.12807 | 21.03049 | 35085 ft | 480 kts | 131° |
| 2026-04-26 08:55 | 42.08174 | 21.09472 | 35077 ft | 478 kts | 139° |
| 2026-04-26 08:55 | 42.03343 | 21.15615 | 35077 ft | 478 kts | 139° |
| 2026-04-26 08:56 | 41.98505 | 21.21750 | 35073 ft | 478 kts | 139° |
| 2026-04-26 08:56 | 41.93666 | 21.27879 | 35071 ft | 478 kts | 139° |
| 2026-04-26 08:57 | 41.88819 | 21.33992 | 35073 ft | 478 kts | 139° |
| 2026-04-26 08:57 | 41.84009 | 21.40060 | 35079 ft | 478 kts | 139° |
| 2026-04-26 08:58 | 41.79159 | 21.46166 | 35075 ft | 478 kts | 139° |
| 2026-04-26 08:58 | 41.74302 | 21.52249 | 35079 ft | 478 kts | 139° |
| 2026-04-26 08:59 | 41.69441 | 21.58328 | 35082 ft | 478 kts | 139° |
| 2026-04-26 08:59 | 41.64582 | 21.64391 | 35080 ft | 478 kts | 139° |
| 2026-04-26 09:00 | 41.59721 | 21.70444 | 35072 ft | 477 kts | 139° |
| 2026-04-26 09:00 | 41.54861 | 21.76493 | 35073 ft | 477 kts | 139° |
| 2026-04-26 09:01 | 41.50004 | 21.82519 | 35069 ft | 477 kts | 139° |
| 2026-04-26 09:01 | 41.45145 | 21.88539 | 35071 ft | 477 kts | 139° |
| 2026-04-26 09:02 | 41.40277 | 21.94549 | 35068 ft | 477 kts | 139° |
| 2026-04-26 09:02 | 41.35411 | 22.00548 | 35068 ft | 477 kts | 139° |
| 2026-04-26 09:03 | 41.30541 | 22.06541 | 35073 ft | 477 kts | 139° |
| 2026-04-26 09:03 | 41.25670 | 22.12513 | 35065 ft | 476 kts | 139° |
| 2026-04-26 09:04 | 41.20802 | 22.18486 | 35066 ft | 476 kts | 139° |
| 2026-04-26 09:04 | 41.15955 | 22.24402 | 35063 ft | 476 kts | 139° |
| 2026-04-26 09:05 | 41.10910 | 22.30066 | 35067 ft | 475 kts | 142° |
| 2026-04-26 09:05 | 41.05730 | 22.35482 | 35057 ft | 474 kts | 143° |
| 2026-04-26 09:06 | 41.00549 | 22.40894 | 35052 ft | 474 kts | 142° |
| 2026-04-26 09:06 | 40.95413 | 22.46371 | 35049 ft | 474 kts | 142° |
| 2026-04-26 09:07 | 40.90301 | 22.51871 | 35053 ft | 474 kts | 142° |
| 2026-04-26 09:07 | 40.85179 | 22.57355 | 35052 ft | 474 kts | 142° |
| 2026-04-26 09:08 | 40.80061 | 22.62814 | 35057 ft | 473 kts | 142° |
| 2026-04-26 09:08 | 40.74928 | 22.68253 | 35055 ft | 473 kts | 142° |
| 2026-04-26 09:09 | 40.69943 | 22.73533 | 35048 ft | 473 kts | 142° |
| 2026-04-26 09:09 | 40.64822 | 22.78951 | 35054 ft | 472 kts | 142° |
| 2026-04-26 09:10 | 40.59696 | 22.84363 | 35054 ft | 472 kts | 142° |
| 2026-04-26 09:10 | 40.54568 | 22.89774 | 35056 ft | 472 kts | 142° |
| 2026-04-26 09:11 | 40.49447 | 22.95164 | 35057 ft | 472 kts | 142° |
| 2026-04-26 09:11 | 40.44465 | 23.00771 | 35059 ft | 472 kts | 133° |
| 2026-04-26 09:12 | 40.39956 | 23.07025 | 35051 ft | 471 kts | 133° |
| 2026-04-26 09:12 | 40.35454 | 23.13273 | 35049 ft | 471 kts | 133° |
| 2026-04-26 09:13 | 40.30943 | 23.19502 | 35046 ft | 471 kts | 133° |
| 2026-04-26 09:13 | 40.26426 | 23.25712 | 35041 ft | 471 kts | 133° |
| 2026-04-26 09:14 | 40.21907 | 23.31917 | 35042 ft | 470 kts | 133° |
| 2026-04-26 09:14 | 40.17387 | 23.38102 | 35042 ft | 470 kts | 133° |
| 2026-04-26 09:15 | 40.12870 | 23.44271 | 35048 ft | 470 kts | 133° |
| 2026-04-26 09:15 | 40.08382 | 23.50396 | 35048 ft | 469 kts | 133° |
| 2026-04-26 09:16 | 40.03871 | 23.56551 | 35048 ft | 469 kts | 133° |
| 2026-04-26 09:16 | 39.99362 | 23.62693 | 35049 ft | 469 kts | 133° |
| 2026-04-26 09:17 | 39.94844 | 23.68815 | 35050 ft | 468 kts | 133° |
| 2026-04-26 09:17 | 39.90326 | 23.74914 | 35052 ft | 468 kts | 133° |
| 2026-04-26 09:18 | 39.85812 | 23.81013 | 35050 ft | 467 kts | 133° |
| 2026-04-26 09:18 | 39.81302 | 23.87104 | 35054 ft | 467 kts | 133° |
| 2026-04-26 09:19 | 39.76798 | 23.93175 | 35053 ft | 467 kts | 133° |
| 2026-04-26 09:19 | 39.72277 | 23.99238 | 35056 ft | 467 kts | 133° |
| 2026-04-26 09:20 | 39.67757 | 24.05282 | 35056 ft | 466 kts | 133° |
| 2026-04-26 09:20 | 39.63244 | 24.11316 | 35053 ft | 466 kts | 132° |
| 2026-04-26 09:21 | 39.58730 | 24.17350 | 35055 ft | 466 kts | 132° |
| 2026-04-26 09:21 | 39.54216 | 24.23374 | 35055 ft | 466 kts | 132° |
| 2026-04-26 09:22 | 39.49698 | 24.29379 | 35054 ft | 465 kts | 132° |
| 2026-04-26 09:22 | 39.45171 | 24.35371 | 35054 ft | 465 kts | 132° |
| 2026-04-26 09:23 | 39.40648 | 24.41362 | 35058 ft | 465 kts | 132° |
| 2026-04-26 09:23 | 39.36132 | 24.47334 | 35056 ft | 465 kts | 132° |
| 2026-04-26 09:24 | 39.31612 | 24.53300 | 35062 ft | 464 kts | 132° |
| 2026-04-26 09:24 | 39.27133 | 24.59302 | 35063 ft | 464 kts | 131° |
| 2026-04-26 09:25 | 39.22689 | 24.65266 | 35066 ft | 464 kts | 131° |
| 2026-04-26 09:25 | 39.18213 | 24.71244 | 35062 ft | 463 kts | 131° |
| 2026-04-26 09:26 | 39.13728 | 24.77208 | 35061 ft | 463 kts | 131° |
| 2026-04-26 09:26 | 39.09239 | 24.83146 | 35063 ft | 463 kts | 132° |
| 2026-04-26 09:27 | 39.04713 | 24.89036 | 35067 ft | 463 kts | 132° |
| 2026-04-26 09:27 | 39.00166 | 24.94900 | 35063 ft | 462 kts | 132° |
| 2026-04-26 09:28 | 38.95628 | 25.00752 | 35067 ft | 462 kts | 132° |
| 2026-04-26 09:28 | 38.91097 | 25.06597 | 35066 ft | 462 kts | 132° |
| 2026-04-26 09:29 | 38.86567 | 25.12448 | 35060 ft | 461 kts | 132° |
| 2026-04-26 09:29 | 38.82811 | 25.17291 | 35059 ft | 461 kts | 132° |
| 2026-04-26 09:30 | 38.78287 | 25.23112 | 35063 ft | 461 kts | 132° |
| 2026-04-26 09:30 | 38.73015 | 25.29856 | 35062 ft | 460 kts | 132° |
| 2026-04-26 09:31 | 38.68485 | 25.35641 | 35061 ft | 460 kts | 132° |
| 2026-04-26 09:31 | 38.64689 | 25.40492 | 35060 ft | 460 kts | 132° |
| 2026-04-26 09:32 | 38.60198 | 25.46230 | 35057 ft | 459 kts | 132° |
| 2026-04-26 09:32 | 38.55644 | 25.52020 | 35059 ft | 459 kts | 132° |
| 2026-04-26 09:33 | 38.51121 | 25.57752 | 35058 ft | 458 kts | 132° |
| 2026-04-26 09:33 | 38.46616 | 25.63447 | 35054 ft | 458 kts | 131° |
| 2026-04-26 09:34 | 38.42102 | 25.69166 | 35055 ft | 458 kts | 131° |
| 2026-04-26 09:34 | 38.37581 | 25.74881 | 35037 ft | 457 kts | 131° |
| 2026-04-26 09:35 | 38.33063 | 25.80591 | 35036 ft | 457 kts | 131° |
| 2026-04-26 09:35 | 38.28552 | 25.86287 | 35033 ft | 457 kts | 132° |
| 2026-04-26 09:36 | 38.23420 | 25.91118 | 35026 ft | 464 kts | 150° |
| 2026-04-26 09:36 | 38.17385 | 25.94128 | 35022 ft | 467 kts | 158° |
| 2026-04-26 09:37 | 38.11250 | 25.96908 | 35017 ft | 468 kts | 157° |
| 2026-04-26 09:37 | 38.05130 | 25.99699 | 35020 ft | 468 kts | 157° |
| 2026-04-26 09:38 | 37.98998 | 26.02495 | 35025 ft | 468 kts | 157° |
| 2026-04-26 09:38 | 37.92869 | 26.05283 | 35025 ft | 468 kts | 157° |
| 2026-04-26 09:39 | 37.86729 | 26.08056 | 35021 ft | 468 kts | 157° |
| 2026-04-26 09:39 | 37.80592 | 26.10821 | 35018 ft | 469 kts | 157° |
| 2026-04-26 09:40 | 37.74487 | 26.13571 | 35019 ft | 469 kts | 157° |
| 2026-04-26 09:40 | 37.68338 | 26.16331 | 35015 ft | 469 kts | 157° |
| 2026-04-26 09:41 | 37.62156 | 26.19111 | 35011 ft | 469 kts | 157° |
| 2026-04-26 09:41 | 37.56010 | 26.21878 | 35012 ft | 469 kts | 157° |
| 2026-04-26 09:42 | 37.49900 | 26.24614 | 34813 ft | 469 kts | 157° |
| 2026-04-26 09:42 | 37.46826 | 26.25989 | 34584 ft | 469 kts | 157° |
| 2026-04-26 09:42 | 37.43749 | 26.27366 | 34348 ft | 470 kts | 157° |
| 2026-04-26 09:42 | 37.40663 | 26.28744 | 34109 ft | 470 kts | 156° |
| 2026-04-26 09:43 | 37.37582 | 26.30119 | 33759 ft | 470 kts | 156° |
| 2026-04-26 09:43 | 37.34504 | 26.31492 | 33041 ft | 470 kts | 156° |
| 2026-04-26 09:43 | 37.31412 | 26.32869 | 32335 ft | 471 kts | 156° |
| 2026-04-26 09:43 | 37.28324 | 26.34243 | 31633 ft | 472 kts | 156° |
| 2026-04-26 09:44 | 37.25224 | 26.35618 | 30933 ft | 472 kts | 156° |
| 2026-04-26 09:44 | 37.22124 | 26.36991 | 30250 ft | 473 kts | 156° |
| 2026-04-26 09:44 | 37.19025 | 26.38360 | 29477 ft | 473 kts | 157° |
| 2026-04-26 09:44 | 37.15921 | 26.39734 | 28641 ft | 473 kts | 156° |
| 2026-04-26 09:45 | 37.12825 | 26.41113 | 27998 ft | 470 kts | 156° |
| 2026-04-26 09:45 | 37.09760 | 26.42476 | 27416 ft | 465 kts | 156° |
| 2026-04-26 09:45 | 37.06726 | 26.43821 | 26838 ft | 460 kts | 156° |
| 2026-04-26 09:45 | 37.03728 | 26.45153 | 26267 ft | 455 kts | 156° |
| 2026-04-26 09:46 | 37.00753 | 26.46470 | 25712 ft | 451 kts | 157° |
| 2026-04-26 09:46 | 36.97807 | 26.47764 | 25175 ft | 447 kts | 157° |
| 2026-04-26 09:46 | 36.94949 | 26.49200 | 24717 ft | 438 kts | 149° |
| 2026-04-26 09:46 | 36.92339 | 26.51125 | 24483 ft | 434 kts | 141° |
| 2026-04-26 09:47 | 36.90022 | 26.53491 | 24242 ft | 428 kts | 132° |
| 2026-04-26 09:47 | 36.88039 | 26.56235 | 24021 ft | 423 kts | 123° |
| 2026-04-26 09:47 | 36.86445 | 26.59233 | 23793 ft | 417 kts | 115° |
| 2026-04-26 09:47 | 36.85192 | 26.62518 | 23557 ft | 413 kts | 110° |
| 2026-04-26 09:48 | 36.84080 | 26.65774 | 23286 ft | 412 kts | 110° |
| 2026-04-26 09:48 | 36.82956 | 26.69047 | 23018 ft | 410 kts | 110° |
| 2026-04-26 09:48 | 36.81829 | 26.72312 | 22740 ft | 409 kts | 110° |
| 2026-04-26 09:48 | 36.80708 | 26.75571 | 22466 ft | 407 kts | 110° |
| 2026-04-26 09:49 | 36.79593 | 26.78808 | 22186 ft | 406 kts | 110° |
| 2026-04-26 09:49 | 36.78480 | 26.82041 | 21943 ft | 404 kts | 110° |
| 2026-04-26 09:49 | 36.77372 | 26.85252 | 21680 ft | 403 kts | 111° |
| 2026-04-26 09:49 | 36.76273 | 26.88424 | 21314 ft | 395 kts | 111° |
| 2026-04-26 09:50 | 36.75188 | 26.91545 | 20837 ft | 389 kts | 111° |
| 2026-04-26 09:50 | 36.74123 | 26.94609 | 20396 ft | 382 kts | 111° |
| 2026-04-26 09:50 | 36.73076 | 26.97627 | 19953 ft | 377 kts | 111° |
| 2026-04-26 09:50 | 36.72041 | 27.00612 | 19534 ft | 372 kts | 111° |
| 2026-04-26 09:51 | 36.71022 | 27.03546 | 19130 ft | 366 kts | 111° |
| 2026-04-26 09:51 | 36.70020 | 27.06435 | 18724 ft | 361 kts | 111° |
| 2026-04-26 09:51 | 36.69026 | 27.09299 | 18325 ft | 358 kts | 111° |
| 2026-04-26 09:51 | 36.68042 | 27.12132 | 17894 ft | 356 kts | 111° |
| 2026-04-26 09:52 | 36.67062 | 27.14954 | 17494 ft | 354 kts | 112° |
| 2026-04-26 09:52 | 36.65111 | 27.20531 | 16690 ft | 350 kts | 112° |
| 2026-04-26 09:52 | 36.64140 | 27.23296 | 16277 ft | 347 kts | 112° |
| 2026-04-26 09:53 | 36.63173 | 27.26047 | 15868 ft | 345 kts | 112° |
| 2026-04-26 09:53 | 36.62210 | 27.28778 | 15444 ft | 343 kts | 112° |
| 2026-04-26 09:53 | 36.61258 | 27.31488 | 15022 ft | 341 kts | 112° |
| 2026-04-26 09:53 | 36.60314 | 27.34191 | 14600 ft | 339 kts | 112° |
| 2026-04-26 09:54 | 36.59380 | 27.36877 | 14170 ft | 337 kts | 112° |
| 2026-04-26 09:54 | 36.58448 | 27.39544 | 13738 ft | 335 kts | 112° |
| 2026-04-26 09:54 | 36.57516 | 27.42194 | 13270 ft | 333 kts | 112° |
| 2026-04-26 09:54 | 36.56590 | 27.44818 | 12836 ft | 331 kts | 112° |
| 2026-04-26 09:55 | 36.55666 | 27.47430 | 12397 ft | 328 kts | 112° |
| 2026-04-26 09:55 | 36.54749 | 27.50016 | 11958 ft | 326 kts | 112° |
| 2026-04-26 09:55 | 36.53838 | 27.52585 | 11514 ft | 323 kts | 112° |
| 2026-04-26 09:55 | 36.52937 | 27.55131 | 11075 ft | 321 kts | 112° |
| 2026-04-26 09:56 | 36.52109 | 27.57468 | 10743 ft | 317 kts | 112° |
| 2026-04-26 09:56 | 36.51236 | 27.59929 | 10618 ft | 304 kts | 112° |
| 2026-04-26 09:56 | 36.50400 | 27.62289 | 10502 ft | 293 kts | 112° |
| 2026-04-26 09:56 | 36.49596 | 27.64557 | 10365 ft | 282 kts | 112° |
| 2026-04-26 09:57 | 36.48811 | 27.66768 | 10117 ft | 276 kts | 112° |
| 2026-04-26 09:57 | 36.48039 | 27.68939 | 9893 ft | 273 kts | 112° |
| 2026-04-26 09:57 | 36.47276 | 27.71081 | 9923 ft | 272 kts | 112° |
| 2026-04-26 09:57 | 36.46585 | 27.73267 | 9931 ft | 272 kts | 104° |
| 2026-04-26 09:58 | 36.46220 | 27.75569 | 9789 ft | 271 kts | 99° |
| 2026-04-26 09:58 | 36.45916 | 27.77876 | 9646 ft | 271 kts | 99° |
| 2026-04-26 09:58 | 36.45608 | 27.80186 | 9504 ft | 270 kts | 99° |
| 2026-04-26 09:58 | 36.45299 | 27.82487 | 9370 ft | 270 kts | 99° |
| 2026-04-26 09:59 | 36.44992 | 27.84757 | 9232 ft | 270 kts | 99° |
| 2026-04-26 09:59 | 36.44680 | 27.87050 | 9102 ft | 270 kts | 99° |
| 2026-04-26 09:59 | 36.44370 | 27.89344 | 8966 ft | 269 kts | 99° |
| 2026-04-26 09:59 | 36.43915 | 27.91599 | 8826 ft | 270 kts | 110° |
| 2026-04-26 10:00 | 36.43010 | 27.93635 | 8694 ft | 271 kts | 124° |
| 2026-04-26 10:00 | 36.41860 | 27.95498 | 8559 ft | 271 kts | 125° |
| 2026-04-26 10:00 | 36.40713 | 27.97353 | 8420 ft | 271 kts | 125° |
| 2026-04-26 10:00 | 36.39566 | 27.99207 | 8287 ft | 271 kts | 125° |
| 2026-04-26 10:01 | 36.38419 | 28.01054 | 8152 ft | 270 kts | 125° |
| 2026-04-26 10:01 | 36.37271 | 28.02901 | 8022 ft | 270 kts | 125° |
| 2026-04-26 10:01 | 36.36127 | 28.04745 | 7889 ft | 269 kts | 125° |
| 2026-04-26 10:01 | 36.34987 | 28.06589 | 7738 ft | 269 kts | 125° |
| 2026-04-26 10:02 | 36.33853 | 28.08429 | 7617 ft | 268 kts | 124° |
| 2026-04-26 10:02 | 36.32748 | 28.10283 | 7468 ft | 267 kts | 123° |
| 2026-04-26 10:02 | 36.31665 | 28.12155 | 7324 ft | 266 kts | 123° |
| 2026-04-26 10:02 | 36.30594 | 28.14023 | 7191 ft | 266 kts | 122° |
| 2026-04-26 10:03 | 36.29521 | 28.15895 | 7037 ft | 266 kts | 122° |
| 2026-04-26 10:03 | 36.28451 | 28.17755 | 6889 ft | 265 kts | 123° |
| 2026-04-26 10:03 | 36.27382 | 28.19605 | 6741 ft | 264 kts | 123° |
| 2026-04-26 10:03 | 36.26313 | 28.21447 | 6604 ft | 263 kts | 123° |
| 2026-04-26 10:04 | 36.25247 | 28.23282 | 6452 ft | 262 kts | 123° |
| 2026-04-26 10:04 | 36.24184 | 28.25114 | 6307 ft | 261 kts | 123° |
| 2026-04-26 10:04 | 36.23298 | 28.27050 | 6226 ft | 257 kts | 106° |
| 2026-04-26 10:04 | 36.23072 | 28.29222 | 6107 ft | 255 kts | 84° |
| 2026-04-26 10:05 | 36.23557 | 28.31314 | 5946 ft | 256 kts | 64° |
| 2026-04-26 10:05 | 36.24677 | 28.33056 | 5429 ft | 264 kts | 40° |
| 2026-04-26 10:05 | 36.26315 | 28.34106 | 4981 ft | 271 kts | 18° |
| 2026-04-26 10:05 | 36.28141 | 28.34626 | 4658 ft | 268 kts | 16° |
| 2026-04-26 10:06 | 36.29952 | 28.35144 | 4214 ft | 268 kts | 16° |
| 2026-04-26 10:06 | 36.31771 | 28.35678 | 3701 ft | 264 kts | 16° |
| 2026-04-26 10:06 | 36.33505 | 28.36190 | 3379 ft | 248 kts | 16° |
| 2026-04-26 10:06 | 36.35107 | 28.36662 | 3112 ft | 231 kts | 16° |
| 2026-04-26 10:07 | 36.36635 | 28.37113 | 2847 ft | 218 kts | 15° |
| 2026-04-26 10:07 | 36.38067 | 28.37535 | 2630 ft | 205 kts | 15° |
| 2026-04-26 10:07 | 36.39409 | 28.37925 | 2380 ft | 195 kts | 13° |
| 2026-04-26 10:07 | 36.40738 | 28.37995 | 2157 ft | 187 kts | 355° |
| 2026-04-26 10:08 | 36.41964 | 28.37627 | 2036 ft | 175 kts | 339° |
| 2026-04-26 10:08 | 36.43014 | 28.36917 | 2011 ft | 172 kts | 324° |
| 2026-04-26 10:08 | 36.43879 | 28.35925 | 2012 ft | 172 kts | 311° |
| 2026-04-26 10:08 | 36.44674 | 28.34817 | 2015 ft | 172 kts | 312° |
| 2026-04-26 10:09 | 36.45474 | 28.33709 | 2005 ft | 172 kts | 312° |
| 2026-04-26 10:09 | 36.46227 | 28.32553 | 2003 ft | 172 kts | 300° |
| 2026-04-26 10:09 | 36.46646 | 28.31169 | 2007 ft | 172 kts | 278° |
| 2026-04-26 10:09 | 36.46640 | 28.29697 | 2010 ft | 171 kts | 257° |
| 2026-04-26 10:10 | 36.46273 | 28.28299 | 2006 ft | 170 kts | 248° |
| 2026-04-26 10:10 | 36.45871 | 28.26916 | 2003 ft | 170 kts | 249° |
| 2026-04-26 10:10 | 36.45471 | 28.25539 | 2034 ft | 168 kts | 249° |
| 2026-04-26 10:10 | 36.45075 | 28.24175 | 2021 ft | 167 kts | 248° |
| 2026-04-26 10:11 | 36.44683 | 28.22829 | 1971 ft | 166 kts | 248° |
| 2026-04-26 10:11 | 36.44298 | 28.21506 | 1836 ft | 159 kts | 249° |
| 2026-04-26 10:11 | 36.43932 | 28.20248 | 1647 ft | 152 kts | 248° |
| 2026-04-26 10:11 | 36.43573 | 28.19020 | 1435 ft | 150 kts | 248° |
| 2026-04-26 10:12 | 36.43219 | 28.17806 | 1254 ft | 149 kts | 249° |
| 2026-04-26 10:12 | 36.42868 | 28.16605 | 1055 ft | 147 kts | 249° |
| 2026-04-26 10:12 | 36.42517 | 28.15415 | 874 ft | 146 kts | 249° |
| 2026-04-26 10:12 | 36.42170 | 28.14238 | 682 ft | 144 kts | 251° |
| 2026-04-26 10:13 | 36.41829 | 28.13076 | 512 ft | 143 kts | 251° |
| 2026-04-26 10:13 | 36.41496 | 28.11919 | 317 ft | 142 kts | 252° |
| 2026-04-26 10:13 | 36.41166 | 28.10767 | 156 ft | 142 kts | 251° |
| 2026-04-26 10:13 | 36.40842 | 28.09644 | 34 ft | 130 kts | 252° |
| 2026-04-26 10:14 | 36.40576 | 28.08746 | 29 ft | 83 kts | 249° |
| 2026-04-26 10:14 | 36.40441 | 28.08284 | 28 ft | 38 kts | 250° |
| 2026-04-26 10:14 | 36.40363 | 28.08061 | 29 ft | 19 kts | 238° |
| 2026-04-26 10:14 | 36.40275 | 28.07950 | 28 ft | 18 kts | 222° |
| 2026-04-26 10:15 | 36.40205 | 28.07873 | 28 ft | 12 kts | 221° |
| 2026-04-26 10:15 | 36.40147 | 28.07890 | 28 ft | 9 kts | 102° |
| 2026-04-26 10:15 | 36.40162 | 28.07961 | 28 ft | 8 kts | 66° |
| 2026-04-26 10:15 | 36.40182 | 28.08018 | 28 ft | 7 kts | 68° |
| 2026-04-26 10:16 | 36.40194 | 28.08064 | 28 ft | 5 kts | 73° |
| 2026-04-26 10:16 | 36.40203 | 28.08101 | 28 ft | 5 kts | 72° |
| 2026-04-26 10:16 | 36.40226 | 28.08178 | 28 ft | 15 kts | 69° |
| 2026-04-26 10:16 | 36.40276 | 28.08343 | 28 ft | 23 kts | 70° |
| 2026-04-26 10:17 | 36.40329 | 28.08527 | 28 ft | 21 kts | 70° |
| 2026-04-26 10:17 | 36.40379 | 28.08698 | 28 ft | 21 kts | 70° |
| 2026-04-26 10:17 | 36.40402 | 28.08846 | 28 ft | 16 kts | 94° |
| 2026-04-26 10:17 | 36.40397 | 28.08934 | 28 ft | 8 kts | 92° |
| 2026-04-26 10:18 | 36.40397 | 28.08969 | 28 ft | 0 kts | 87° |
| 2026-04-26 10:19 | 36.40397 | 28.08973 | 28 ft | 3 kts | 86° |
| 2026-04-26 10:19 | 36.40409 | 28.09033 | 28 ft | 8 kts | 72° |
| 2026-04-26 10:20 | 36.40422 | 28.09086 | 28 ft | 4 kts | 72° |
| 2026-04-26 10:20 | 36.40419 | 28.09100 | 28 ft | 3 kts | 114° |
| 2026-04-26 10:20 | 36.40407 | 28.09116 | 28 ft | 2 kts | 141° |
| 2026-04-26 10:20 | 36.40395 | 28.09123 | 28 ft | 1 kts | 156° |
| 2026-04-26 10:21 | 36.40386 | 28.09127 | 28 ft | 2 kts | 158° |
| 2026-04-26 10:21 | 36.40376 | 28.09133 | 28 ft | 1 kts | 159° |
| 2026-04-26 10:21 | 36.40370 | 28.09135 | 28 ft | 0 kts | 159° |